Time;durP1;ratioP1;P1;durP2;ratioP2;P2;SDS_P1;SDS_P2;PMS_P1;PMS_P2;Temp;Humidity;BMP_temperature;BMP_pressure;BME280_temperature;BME280_humidity;BME280_pressure;Samples;Min_cycle;Max_cycle;Signal;HPM_P1;HPM_P2
2021/08/14 00:02:22;;;;;;;8.10;3.25;;;21.30;70.50;;;;;;5083302;28;20347;-71
2021/08/14 00:04:48;;;;;;;9.00;3.25;;;21.30;70.50;;;;;;5096323;28;20051;-70
2021/08/14 00:07:14;;;;;;;7.97;3.00;;;21.30;70.50;;;;;;5096652;28;20047;-71
2021/08/14 00:09:40;;;;;;;9.50;3.63;;;21.30;70.50;;;;;;5096667;28;20419;-71
2021/08/14 00:12:06;;;;;;;8.93;3.13;;;21.30;70.50;;;;;;5096295;28;20040;-71
2021/08/14 00:14:33;;;;;;;8.82;2.88;;;21.30;70.50;;;;;;5096435;28;20036;-70
2021/08/14 00:16:59;;;;;;;8.25;3.00;;;21.30;70.50;;;;;;5096580;28;20172;-70
2021/08/14 00:19:25;;;;;;;8.10;3.25;;;21.30;70.50;;;;;;5096045;28;20031;-71
2021/08/14 00:21:50;;;;;;;7.57;3.30;;;21.30;70.50;;;;;;5096465;28;20040;-71
2021/08/14 00:24:16;;;;;;;6.97;2.95;;;21.30;70.50;;;;;;5096116;28;20044;-71
2021/08/14 00:26:42;;;;;;;9.85;3.03;;;21.30;70.60;;;;;;5096449;28;20043;-71
2021/08/14 00:29:08;;;;;;;9.25;3.25;;;21.30;70.60;;;;;;5095833;28;20047;-70
2021/08/14 00:31:34;;;;;;;6.53;2.83;;;21.30;70.60;;;;;;5096024;28;20089;-71
2021/08/14 00:34:00;;;;;;;6.88;2.45;;;21.30;70.70;;;;;;5075814;28;20397;-71
2021/08/14 00:36:26;;;;;;;8.00;3.25;;;21.30;70.70;;;;;;5075856;28;20131;-70
2021/08/14 00:38:51;;;;;;;8.15;3.33;;;21.30;70.70;;;;;;5075826;28;20442;-70
2021/08/14 00:41:17;;;;;;;10.10;3.20;;;21.30;70.70;;;;;;5075518;28;20040;-70
2021/08/14 00:43:45;;;;;;;7.50;2.95;;;21.30;70.70;;;;;;5075505;28;20467;-70
2021/08/14 00:46:14;;;;;;;9.18;3.63;;;21.20;70.60;;;;;;5075633;28;20055;-71
2021/08/14 00:48:40;;;;;;;7.82;3.30;;;21.30;70.70;;;;;;5075389;28;20442;-71
2021/08/14 00:51:09;;;;;;;7.55;3.00;;;21.30;70.80;;;;;;5075803;28;20086;-70
2021/08/14 00:53:36;;;;;;;9.50;3.00;;;21.30;70.80;;;;;;5075461;28;20119;-71
2021/08/14 00:56:03;;;;;;;8.68;3.20;;;21.30;70.80;;;;;;5074845;28;20045;-70
2021/08/14 00:58:29;;;;;;;7.53;3.10;;;21.20;70.80;;;;;;5074975;28;20032;-71
2021/08/14 01:00:57;;;;;;;7.25;2.97;;;21.20;70.80;;;;;;5075358;28;20105;-70
2021/08/14 01:03:26;;;;;;;6.30;2.80;;;21.20;70.80;;;;;;5093184;28;20050;-70
2021/08/14 01:05:51;;;;;;;9.57;3.30;;;21.20;70.80;;;;;;5093243;28;20118;-71
2021/08/14 01:08:17;;;;;;;7.32;2.60;;;21.20;70.80;;;;;;5095270;28;20036;-70
2021/08/14 01:10:43;;;;;;;8.40;3.20;;;21.20;70.80;;;;;;5095386;28;20058;-71
2021/08/14 01:13:10;;;;;;;9.35;3.35;;;21.20;70.80;;;;;;5095538;28;20065;-71
2021/08/14 01:15:47;;;;;;;6.30;2.97;;;21.30;70.90;;;;;;5095498;28;20044;-71
2021/08/14 01:18:13;;;;;;;9.25;3.28;;;21.20;70.90;;;;;;5095544;28;20097;-70
2021/08/14 01:20:41;;;;;;;8.15;3.03;;;21.20;70.90;;;;;;5095492;28;20040;-70
2021/08/14 01:23:07;;;;;;;10.00;3.25;;;21.20;70.90;;;;;;5095252;28;20085;-70
2021/08/14 01:25:33;;;;;;;8.93;3.00;;;21.20;70.90;;;;;;5095362;28;20465;-70
2021/08/14 01:27:59;;;;;;;8.60;2.88;;;21.20;70.90;;;;;;5095502;28;20089;-70
2021/08/14 01:30:25;;;;;;;10.60;3.75;;;21.20;71.00;;;;;;5095447;28;20497;-71
2021/08/14 01:32:51;;;;;;;8.13;3.28;;;21.20;71.00;;;;;;5081963;28;20098;-70
2021/08/14 01:35:17;;;;;;;7.20;2.97;;;21.20;71.00;;;;;;5074981;28;20131;-70
2021/08/14 01:37:43;;;;;;;6.55;3.08;;;21.20;71.00;;;;;;5075187;28;20123;-70
2021/08/14 01:40:09;;;;;;;9.63;3.65;;;21.20;71.00;;;;;;5074851;28;20432;-71
2021/08/14 01:42:35;;;;;;;8.63;3.60;;;21.20;71.00;;;;;;5077543;28;20044;-70
2021/08/14 01:45:01;;;;;;;6.97;2.92;;;21.20;71.00;;;;;;5079183;28;20055;-71
2021/08/14 01:47:27;;;;;;;6.40;2.80;;;21.20;71.00;;;;;;5079750;28;20097;-70
2021/08/14 01:49:53;;;;;;;6.68;2.97;;;21.20;71.00;;;;;;5079670;28;20066;-71
2021/08/14 01:52:19;;;;;;;9.05;3.53;;;21.20;71.00;;;;;;5078912;28;20040;-70
2021/08/14 01:54:46;;;;;;;9.15;2.90;;;21.20;71.10;;;;;;5078580;28;20339;-70
2021/08/14 01:57:13;;;;;;;9.75;3.00;;;21.20;71.10;;;;;;5078658;28;20355;-70
2021/08/14 01:59:39;;;;;;;7.53;3.30;;;21.20;71.10;;;;;;5078714;28;20040;-71
2021/08/14 02:02:05;;;;;;;8.10;3.00;;;21.20;71.10;;;;;;5087792;28;20047;-70
2021/08/14 02:04:32;;;;;;;8.25;3.17;;;21.20;71.10;;;;;;5098619;28;20354;-70
2021/08/14 02:06:58;;;;;;;7.45;2.67;;;21.20;71.10;;;;;;5098479;28;20039;-70
2021/08/14 02:09:23;;;;;;;6.82;3.17;;;21.20;71.10;;;;;;5098589;28;20474;-71
2021/08/14 02:11:49;;;;;;;9.55;3.22;;;21.20;71.10;;;;;;5098837;28;20067;-70
2021/08/14 02:14:15;;;;;;;9.40;3.05;;;21.20;71.10;;;;;;5098990;28;20071;-70
2021/08/14 02:16:42;;;;;;;7.22;2.83;;;21.20;71.20;;;;;;5098780;28;20043;-70
2021/08/14 02:19:07;;;;;;;7.68;2.90;;;21.20;71.20;;;;;;5098545;28;20044;-70
2021/08/14 02:21:33;;;;;;;9.50;3.55;;;21.20;71.20;;;;;;5098581;28;20044;-71
2021/08/14 02:24:00;;;;;;;8.35;2.72;;;21.20;71.80;;;;;;5098673;28;20048;-71
2021/08/14 02:26:26;;;;;;;8.20;3.10;;;21.20;71.20;;;;;;5098571;28;20067;-71
2021/08/14 02:28:52;;;;;;;7.50;3.42;;;21.20;71.20;;;;;;5098137;28;20044;-70
2021/08/14 02:31:18;;;;;;;10.02;3.10;;;21.20;71.20;;;;;;5095871;28;20109;-70
2021/08/14 02:33:45;;;;;;;9.02;3.20;;;21.20;71.20;;;;;;5078301;28;20347;-70
2021/08/14 02:36:12;;;;;;;6.30;3.22;;;21.20;71.20;;;;;;5077493;28;20450;-71
2021/08/14 02:38:39;;;;;;;9.27;3.25;;;21.20;71.30;;;;;;5077924;28;20040;-70
2021/08/14 02:41:06;;;;;;;10.82;3.90;;;21.20;71.30;;;;;;5078031;28;20040;-70
2021/08/14 02:43:32;;;;;;;11.77;3.92;;;21.20;71.30;;;;;;5078030;28;20075;-71
2021/08/14 02:46:00;;;;;;;6.82;3.00;;;21.10;71.30;;;;;;5078148;28;20071;-70
2021/08/14 02:48:28;;;;;;;7.60;3.35;;;21.20;71.40;;;;;;5078076;28;20048;-70
2021/08/14 02:50:54;;;;;;;5.90;2.97;;;21.20;71.40;;;;;;5077711;28;20051;-71
2021/08/14 02:53:20;;;;;;;9.98;3.80;;;21.20;71.40;;;;;;5076374;28;20325;-70
2021/08/14 02:55:46;;;;;;;7.50;2.72;;;21.20;71.40;;;;;;5077519;28;20072;-70
2021/08/14 02:58:12;;;;;;;6.65;3.00;;;21.10;71.30;;;;;;5077418;28;20032;-70
2021/08/14 03:00:38;;;;;;;9.70;3.17;;;21.10;71.40;;;;;;5079075;28;20036;-71
2021/08/14 03:03:04;;;;;;;9.05;3.08;;;21.20;71.40;;;;;;5077876;28;20119;-71
2021/08/14 03:05:30;;;;;;;8.25;2.90;;;21.20;71.40;;;;;;5077450;28;20037;-70
2021/08/14 03:07:57;;;;;;;6.75;3.20;;;21.10;71.30;;;;;;5077331;28;20049;-70
2021/08/14 03:10:23;;;;;;;8.35;3.15;;;21.20;71.40;;;;;;5077752;28;20040;-70
2021/08/14 03:12:49;;;;;;;9.32;3.13;;;21.20;71.40;;;;;;5076954;28;20511;-70
2021/08/14 03:15:15;;;;;;;7.57;3.28;;;21.10;71.30;;;;;;5077440;28;20060;-70
2021/08/14 03:17:42;;;;;;;10.23;3.50;;;21.10;71.30;;;;;;5077728;28;20048;-70
2021/08/14 03:20:10;;;;;;;7.82;2.72;;;21.10;71.30;;;;;;5077224;28;20037;-70
2021/08/14 03:22:36;;;;;;;8.13;2.72;;;21.20;71.40;;;;;;5077662;28;20526;-71
2021/08/14 03:25:02;;;;;;;10.52;3.85;;;21.10;71.40;;;;;;5077216;28;20115;-70
2021/08/14 03:27:28;;;;;;;8.57;3.33;;;21.20;71.50;;;;;;5077115;28;20048;-70
2021/08/14 03:29:53;;;;;;;6.50;2.88;;;21.10;71.40;;;;;;5076955;28;20060;-70
2021/08/14 03:32:19;;;;;;;9.85;3.80;;;21.10;71.50;;;;;;5093778;28;20107;-71
2021/08/14 03:34:45;;;;;;;5.78;3.00;;;21.10;71.50;;;;;;5096994;28;20040;-70
2021/08/14 03:37:11;;;;;;;7.93;3.05;;;21.10;71.40;;;;;;5097157;28;20071;-70
2021/08/14 03:39:38;;;;;;;9.38;3.38;;;21.10;71.50;;;;;;5096971;28;20040;-70
2021/08/14 03:42:04;;;;;;;7.68;3.22;;;21.10;71.50;;;;;;5097152;28;20043;-70
2021/08/14 03:44:30;;;;;;;7.50;3.80;;;21.10;71.50;;;;;;5096893;28;20047;-71
2021/08/14 03:46:56;;;;;;;8.05;2.78;;;21.10;71.50;;;;;;5097114;28;20340;-70
2021/08/14 03:49:22;;;;;;;9.60;3.15;;;21.10;71.50;;;;;;5097388;28;20046;-70
2021/08/14 03:51:48;;;;;;;8.73;3.17;;;21.10;71.50;;;;;;5096592;28;20032;-69
2021/08/14 03:54:14;;;;;;;7.85;3.08;;;21.10;71.50;;;;;;5096764;28;20065;-70
2021/08/14 03:56:39;;;;;;;8.68;3.67;;;21.10;71.50;;;;;;5096383;28;20072;-71
2021/08/14 03:59:05;;;;;;;7.10;3.15;;;21.10;71.60;;;;;;5096971;28;20320;-71
2021/08/14 04:01:36;;;;;;;10.68;3.53;;;21.10;71.60;;;;;;5084150;28;20043;-70
2021/08/14 04:04:01;;;;;;;7.55;3.38;;;21.10;71.60;;;;;;5096702;28;20040;-70
2021/08/14 04:06:27;;;;;;;8.82;3.17;;;21.10;71.60;;;;;;5096738;28;20039;-71
2021/08/14 04:08:53;;;;;;;7.47;3.65;;;21.10;71.60;;;;;;5096679;28;20040;-70
2021/08/14 04:11:19;;;;;;;7.40;3.53;;;21.10;71.60;;;;;;5097029;28;20427;-71
2021/08/14 04:13:44;;;;;;;9.52;3.92;;;21.10;71.60;;;;;;5096637;28;20412;-70
2021/08/14 04:16:10;;;;;;;8.10;3.30;;;21.10;71.60;;;;;;5096749;28;20119;-70
2021/08/14 04:18:36;;;;;;;6.60;3.28;;;21.10;71.60;;;;;;5096507;28;20039;-71
2021/08/14 04:21:02;;;;;;;5.95;3.20;;;21.10;71.60;;;;;;5096136;28;20044;-70
2021/08/14 04:23:28;;;;;;;8.40;3.03;;;21.10;71.60;;;;;;5096401;28;20040;-70
2021/08/14 04:25:54;;;;;;;9.98;3.75;;;21.10;71.50;;;;;;5096462;28;20040;-70
2021/08/14 04:28:20;;;;;;;6.97;3.00;;;21.10;71.50;;;;;;5095908;28;20328;-72
2021/08/14 04:30:46;;;;;;;9.18;3.30;;;21.10;71.50;;;;;;5095977;28;20055;-70
2021/08/14 04:33:11;;;;;;;7.00;3.22;;;21.10;71.50;;;;;;5079638;28;20150;-70
2021/08/14 04:35:37;;;;;;;8.38;3.60;;;21.10;71.50;;;;;;5075993;28;20044;-71
2021/08/14 04:38:03;;;;;;;8.63;3.75;;;21.10;71.60;;;;;;5075742;28;20044;-70
2021/08/14 04:40:29;;;;;;;9.48;3.65;;;21.10;71.60;;;;;;5057952;28;20417;-70
2021/08/14 04:42:56;;;;;;;7.30;3.08;;;21.10;71.60;;;;;;5075831;28;20036;-70
2021/08/14 04:45:24;;;;;;;6.15;2.53;;;21.10;71.60;;;;;;5075531;28;20040;-71
2021/08/14 04:47:50;;;;;;;8.93;3.38;;;21.10;71.70;;;;;;5075436;28;20448;-70
2021/08/14 04:50:16;;;;;;;10.45;4.30;;;21.10;71.70;;;;;;5075585;28;20048;-70
2021/08/14 04:52:42;;;;;;;8.82;3.30;;;21.10;71.70;;;;;;5075611;28;20045;-70
2021/08/14 04:55:09;;;;;;;9.13;3.17;;;21.10;71.70;;;;;;5075743;28;20105;-70
2021/08/14 04:57:36;;;;;;;9.88;3.20;;;21.10;71.70;;;;;;5074573;28;20064;-71
2021/08/14 05:00:04;;;;;;;6.25;2.75;;;21.10;71.70;;;;;;5075538;28;20052;-70
2021/08/14 05:02:30;;;;;;;8.45;3.22;;;21.10;71.70;;;;;;5084857;28;20062;-70
2021/08/14 05:04:56;;;;;;;7.93;3.45;;;21.10;71.80;;;;;;5095862;28;20051;-71
2021/08/14 05:07:22;;;;;;;6.38;2.85;;;21.10;71.80;;;;;;5095596;28;20115;-70
2021/08/14 05:09:49;;;;;;;7.20;3.08;;;21.10;71.80;;;;;;5095651;28;20511;-71
2021/08/14 05:12:15;;;;;;;9.18;3.72;;;21.10;71.80;;;;;;5096182;28;20035;-71
2021/08/14 05:14:41;;;;;;;6.07;2.95;;;21.10;71.80;;;;;;5095559;28;20411;-71
2021/08/14 05:17:07;;;;;;;7.25;3.42;;;21.10;71.80;;;;;;5095005;28;20377;-71
2021/08/14 05:19:36;;;;;;;7.45;3.15;;;21.10;71.80;;;;;;5095360;28;20044;-71
2021/08/14 05:22:02;;;;;;;7.70;3.10;;;21.10;72.50;;;;;;5095443;28;20502;-70
2021/08/14 05:24:27;;;;;;;7.95;3.08;;;21.10;71.80;;;;;;5096056;28;20138;-71
2021/08/14 05:26:53;;;;;;;8.20;3.42;;;21.10;71.90;;;;;;5095158;28;20111;-71
2021/08/14 05:29:19;;;;;;;7.40;2.78;;;21.00;71.80;;;;;;5095781;28;20446;-69
2021/08/14 05:31:45;;;;;;;8.02;2.85;;;21.10;71.80;;;;;;5089428;28;20076;-70
2021/08/14 05:34:11;;;;;;;7.03;3.17;;;21.10;71.80;;;;;;5074958;28;20123;-70
2021/08/14 05:36:39;;;;;;;8.32;3.55;;;21.10;71.80;;;;;;5074658;28;20094;-70
2021/08/14 05:39:04;;;;;;;8.60;3.38;;;21.10;71.80;;;;;;5074988;28;20041;-70
2021/08/14 05:41:36;;;;;;;8.68;3.55;;;21.10;71.90;;;;;;5075112;28;20048;-70
2021/08/14 05:44:07;;;;;;;9.40;3.55;;;21.10;71.80;;;;;;5075558;28;20132;-70
2021/08/14 05:46:33;;;;;;;6.95;3.03;;;21.10;71.90;;;;;;5074936;28;20054;-70
2021/08/14 05:48:59;;;;;;;9.43;3.22;;;21.10;71.90;;;;;;5075106;28;20123;-70
2021/08/14 05:51:25;;;;;;;9.20;2.88;;;21.10;71.80;;;;;;5075071;28;20420;-70
2021/08/14 05:53:51;;;;;;;7.93;3.05;;;21.10;71.80;;;;;;5075021;28;20127;-70
2021/08/14 05:56:17;;;;;;;6.65;3.10;;;21.10;71.90;;;;;;5074613;28;20135;-70
2021/08/14 05:58:43;;;;;;;8.48;3.45;;;21.10;71.90;;;;;;5074109;28;20426;-70
2021/08/14 06:01:08;;;;;;;7.43;3.22;;;21.10;71.90;;;;;;5074542;28;20040;-71
2021/08/14 06:03:35;;;;;;;9.38;3.85;;;21.10;71.90;;;;;;5075936;28;20340;-70
2021/08/14 06:06:02;;;;;;;8.00;2.95;;;21.10;71.90;;;;;;5074963;28;20040;-71
2021/08/14 06:08:28;;;;;;;8.65;3.53;;;21.10;71.90;;;;;;5075076;28;20119;-70
2021/08/14 06:10:53;;;;;;;16.00;4.97;;;21.10;72.10;;;;;;5074705;28;20102;-70
2021/08/14 06:13:19;;;;;;;18.83;4.35;;;21.10;72.20;;;;;;5075123;28;20190;-70
2021/08/14 06:15:45;;;;;;;19.75;4.88;;;21.10;72.40;;;;;;5090122;28;20380;-69
2021/08/14 06:18:12;;;;;;;12.32;3.97;;;21.10;72.60;;;;;;5094934;28;20075;-70
2021/08/14 06:20:39;;;;;;;16.38;4.90;;;21.00;72.80;;;;;;5094811;28;20117;-70
2021/08/14 06:23:05;;;;;;;15.75;4.90;;;21.10;72.80;;;;;;5094935;28;20048;-70
2021/08/14 06:25:31;;;;;;;15.88;4.85;;;21.10;72.90;;;;;;5077050;28;20040;-69
2021/08/14 06:27:57;;;;;;;16.98;5.53;;;21.00;73.10;;;;;;5075570;28;20041;-71
2021/08/14 06:30:23;;;;;;;18.17;5.78;;;21.00;73.30;;;;;;5078208;28;20143;-72
2021/08/14 06:32:49;;;;;;;20.20;5.75;;;21.00;73.40;;;;;;5078067;28;20048;-70
2021/08/14 06:35:15;;;;;;;20.00;6.22;;;21.00;73.50;;;;;;5077932;28;20484;-71
2021/08/14 06:37:42;;;;;;;18.85;5.78;;;21.00;73.60;;;;;;5091635;28;20538;-71
2021/08/14 06:40:10;;;;;;;18.40;7.82;;;21.00;73.70;;;;;;5094161;28;20043;-73
2021/08/14 06:42:36;;;;;;;19.52;6.97;;;21.00;73.90;;;;;;5097952;28;20036;-71
2021/08/14 06:45:02;;;;;;;20.45;5.95;;;21.00;74.60;;;;;;5098425;28;20173;-71
2021/08/14 06:47:28;;;;;;;19.92;6.57;;;21.00;75.00;;;;;;5098376;28;20043;-71
2021/08/14 06:49:54;;;;;;;19.73;6.07;;;21.00;75.00;;;;;;5098029;28;20036;-72
2021/08/14 06:52:20;;;;;;;19.77;5.57;;;21.00;75.10;;;;;;5097942;28;20039;-73
2021/08/14 06:54:48;;;;;;;21.10;5.75;;;21.00;74.90;;;;;;5096966;28;20044;-72
2021/08/14 06:57:15;;;;;;;20.42;5.63;;;20.90;75.00;;;;;;5096857;28;20400;-73
2021/08/14 06:59:40;;;;;;;22.42;6.50;;;20.90;75.10;;;;;;5098424;28;20046;-73
2021/08/14 07:02:08;;;;;;;18.23;5.80;;;20.90;75.30;;;;;;5098044;28;20044;-74
2021/08/14 07:04:36;;;;;;;18.52;6.03;;;20.90;75.30;;;;;;5098545;28;20071;-76
2021/08/14 07:07:02;;;;;;;18.30;5.88;;;20.90;75.40;;;;;;5097454;28;20058;-74
2021/08/14 07:09:28;;;;;;;30.65;6.50;;;20.90;75.40;;;;;;5088065;28;20044;-74
2021/08/14 07:11:54;;;;;;;19.10;5.18;;;20.90;75.40;;;;;;5093911;28;20051;-72
2021/08/14 07:14:20;;;;;;;19.63;5.85;;;20.80;75.30;;;;;;5094740;28;20087;-73
2021/08/14 07:16:45;;;;;;;19.80;5.63;;;20.80;75.30;;;;;;5077513;28;20036;-72
2021/08/14 07:19:11;;;;;;;21.27;5.30;;;20.80;75.20;;;;;;5077036;28;20443;-73
2021/08/14 07:21:38;;;;;;;15.65;5.22;;;20.80;75.10;;;;;;5077163;28;20436;-71
2021/08/14 07:24:04;;;;;;;18.92;5.60;;;20.80;75.00;;;;;;5077431;28;20046;-73
2021/08/14 07:26:30;;;;;;;20.23;5.05;;;20.80;75.10;;;;;;5079291;28;20055;-72
2021/08/14 07:28:55;;;;;;;19.85;5.60;;;20.80;75.10;;;;;;5097276;28;20040;-73
2021/08/14 07:31:22;;;;;;;23.00;5.70;;;20.80;75.10;;;;;;5097397;28;20047;-73
2021/08/14 07:33:48;;;;;;;17.33;5.32;;;20.80;75.00;;;;;;5097300;28;20042;-73
2021/08/14 07:36:14;;;;;;;16.15;5.20;;;20.80;75.10;;;;;;5097269;28;20044;-71
2021/08/14 07:38:40;;;;;;;18.25;4.93;;;20.80;75.30;;;;;;5097412;28;20036;-72
2021/08/14 07:41:05;;;;;;;20.20;6.20;;;20.80;75.20;;;;;;5096472;28;20089;-71
2021/08/14 07:43:31;;;;;;;15.60;5.30;;;20.80;75.60;;;;;;5096916;28;20068;-72
2021/08/14 07:45:57;;;;;;;21.17;5.22;;;20.80;75.30;;;;;;5097042;28;20044;-72
2021/08/14 07:48:22;;;;;;;19.23;6.15;;;20.80;75.20;;;;;;5097226;28;20112;-75
2021/08/14 07:50:48;;;;;;;17.88;4.57;;;20.80;75.20;;;;;;5096869;28;20358;-72
2021/08/14 07:53:14;;;;;;;14.43;4.60;;;20.80;75.10;;;;;;5097060;28;20111;-72
2021/08/14 07:55:40;;;;;;;19.08;5.10;;;20.80;75.10;;;;;;5096510;28;20036;-72
2021/08/14 07:58:11;;;;;;;14.98;4.57;;;20.90;75.00;;;;;;5096113;28;20040;-72
2021/08/14 08:00:37;;;;;;;14.35;4.22;;;20.90;75.00;;;;;;5095532;28;20048;-72
2021/08/14 08:03:03;;;;;;;12.23;4.50;;;20.90;74.90;;;;;;5095113;28;20047;-72
2021/08/14 08:05:29;;;;;;;11.43;4.22;;;20.90;74.90;;;;;;5096623;28;20055;-71
2021/08/14 08:07:55;;;;;;;12.75;3.97;;;20.90;74.90;;;;;;5096662;28;20442;-71
2021/08/14 08:10:21;;;;;;;13.25;4.43;;;21.00;74.80;;;;;;5096548;28;20036;-72
2021/08/14 08:12:48;;;;;;;11.75;4.35;;;21.00;74.80;;;;;;5096992;28;20040;-73
2021/08/14 08:15:15;;;;;;;12.93;4.18;;;21.00;74.80;;;;;;5096789;28;20040;-73
2021/08/14 08:17:42;;;;;;;11.43;3.80;;;21.00;74.70;;;;;;5095878;28;20406;-72
2021/08/14 08:20:10;;;;;;;14.95;4.03;;;21.00;74.60;;;;;;5096319;28;20035;-72
2021/08/14 08:22:36;;;;;;;9.23;3.75;;;21.10;74.60;;;;;;5096400;28;20115;-72
2021/08/14 08:25:03;;;;;;;13.63;4.20;;;21.00;74.40;;;;;;5096014;28;20127;-73
2021/08/14 08:27:29;;;;;;;11.40;3.50;;;21.10;74.50;;;;;;5096307;28;20036;-72
2021/08/14 08:29:55;;;;;;;8.70;3.65;;;21.10;74.40;;;;;;5084003;28;20047;-71
2021/08/14 08:32:20;;;;;;;11.57;3.92;;;21.10;74.30;;;;;;5075915;28;20048;-72
2021/08/14 08:34:46;;;;;;;10.05;3.85;;;21.10;74.20;;;;;;5076038;28;20045;-72
2021/08/14 08:37:12;;;;;;;11.38;3.83;;;21.10;74.10;;;;;;5075408;28;20048;-71
2021/08/14 08:39:38;;;;;;;9.43;3.20;;;21.10;74.00;;;;;;5075858;28;20427;-71
2021/08/14 08:42:07;;;;;;;9.05;3.45;;;21.10;73.90;;;;;;5075504;28;20125;-72
2021/08/14 08:44:35;;;;;;;10.88;4.05;;;21.10;73.90;;;;;;5076395;28;20037;-72
2021/08/14 08:47:00;;;;;;;9.93;3.00;;;21.10;73.90;;;;;;5075458;28;20052;-72
2021/08/14 08:49:27;;;;;;;7.53;2.85;;;21.10;73.80;;;;;;5075831;28;20117;-72
2021/08/14 08:51:54;;;;;;;9.13;3.95;;;21.10;73.80;;;;;;5074623;28;20033;-72
2021/08/14 08:54:20;;;;;;;10.23;3.47;;;21.10;73.70;;;;;;5075710;28;20043;-73
2021/08/14 08:56:46;;;;;;;9.88;3.42;;;21.10;73.70;;;;;;5075156;28;20052;-72
2021/08/14 08:59:13;;;;;;;11.80;4.07;;;21.10;73.70;;;;;;5080751;28;20108;-72
2021/08/14 09:01:39;;;;;;;7.57;3.25;;;21.20;73.70;;;;;;5095790;28;20044;-72
2021/08/14 09:04:25;;;;;;;7.95;2.83;;;21.20;73.60;;;;;;5095337;28;20055;-72
2021/08/14 09:06:51;;;;;;;8.10;3.63;;;21.20;73.60;;;;;;5095418;28;20035;-72
2021/08/14 09:09:27;;;;;;;8.75;3.42;;;21.10;73.50;;;;;;5095169;28;20111;-73
2021/08/14 09:12:00;;;;;;;6.72;3.28;;;21.20;73.50;;;;;;5095406;28;20093;-73
2021/08/14 09:14:27;;;;;;;11.35;3.97;;;21.20;73.50;;;;;;5095051;28;20050;-73
2021/08/14 09:17:07;;;;;;;7.28;3.00;;;21.20;73.50;;;;;;5095424;28;20132;-71
2021/08/14 09:19:33;;;;;;;8.40;3.20;;;21.20;73.50;;;;;;5095269;28;20450;-72
2021/08/14 09:22:13;;;;;;;9.88;3.83;;;21.20;73.50;;;;;;5094990;28;20494;-73
2021/08/14 09:24:40;;;;;;;7.05;3.20;;;21.20;73.30;;;;;;5095526;28;20372;-72
2021/08/14 09:27:07;;;;;;;7.88;3.17;;;21.20;73.30;;;;;;5095159;28;20040;-73
2021/08/14 09:29:35;;;;;;;8.88;3.22;;;21.20;73.30;;;;;;5084221;28;20045;-72
2021/08/14 09:32:05;;;;;;;6.75;2.90;;;21.20;73.30;;;;;;5075162;28;20048;-72
2021/08/14 09:34:31;;;;;;;11.10;3.67;;;21.20;73.30;;;;;;5075310;28;20036;-71
2021/08/14 09:37:05;;;;;;;5.72;2.70;;;21.20;73.20;;;;;;5074989;28;20398;-72
2021/08/14 09:39:33;;;;;;;6.30;3.20;;;21.20;73.20;;;;;;5075198;28;20055;-72
2021/08/14 09:42:06;;;;;;;7.30;3.00;;;21.30;73.20;;;;;;5075064;28;20106;-72
2021/08/14 09:44:33;;;;;;;;;;;21.20;73.10;;;;;;5075272;28;20047;-72
2021/08/14 09:46:58;;;;;;;6.78;2.78;;;21.20;73.10;;;;;;5075062;28;20398;-72
2021/08/14 09:49:24;;;;;;;7.68;3.15;;;21.20;73.10;;;;;;5075038;28;20037;-72
2021/08/14 09:51:50;;;;;;;6.50;3.20;;;21.30;73.10;;;;;;5074947;28;20419;-72
2021/08/14 09:54:16;;;;;;;8.63;2.88;;;21.30;73.00;;;;;;5074702;28;20339;-73
2021/08/14 09:56:42;;;;;;;6.38;3.10;;;21.30;73.00;;;;;;5074525;28;20044;-73
2021/08/14 09:59:08;;;;;;;11.63;3.15;;;21.30;73.10;;;;;;5081904;28;20350;-73
2021/08/14 10:01:38;;;;;;;8.55;3.25;;;21.30;73.00;;;;;;5095015;28;20351;-72
2021/08/14 10:04:05;;;;;;;9.50;3.30;;;21.30;73.00;;;;;;5098523;28;20040;-72
2021/08/14 10:06:31;;;;;;;5.88;3.08;;;21.30;72.90;;;;;;5099489;28;20124;-72
2021/08/14 10:08:57;;;;;;;7.35;2.67;;;21.30;72.80;;;;;;5098728;28;20079;-72
2021/08/14 10:11:23;;;;;;;6.03;2.72;;;21.30;72.70;;;;;;5098677;28;20090;-72
2021/08/14 10:13:50;;;;;;;7.68;2.90;;;21.40;72.80;;;;;;5098833;28;20040;-72
2021/08/14 10:16:17;;;;;;;8.02;3.13;;;21.30;72.80;;;;;;5099032;28;20113;-72
2021/08/14 10:18:45;;;;;;;9.18;3.42;;;21.40;72.90;;;;;;5098842;28;20423;-72
2021/08/14 10:21:13;;;;;;;5.70;3.10;;;21.40;72.80;;;;;;5099368;28;20047;-73
2021/08/14 10:23:40;;;;;;;6.22;2.88;;;21.30;72.70;;;;;;5098527;28;20040;-73
2021/08/14 10:26:10;;;;;;;5.93;2.63;;;21.30;72.80;;;;;;5098353;28;20079;-72
2021/08/14 10:28:53;;;;;;;8.52;3.13;;;21.30;72.80;;;;;;5095041;28;20040;-72
2021/08/14 10:31:31;;;;;;;5.82;2.53;;;21.30;72.70;;;;;;5098276;28;20055;-73
2021/08/14 10:33:58;;;;;;;6.25;2.30;;;21.40;72.80;;;;;;5098051;28;20402;-72
2021/08/14 10:36:27;;;;;;;6.47;2.22;;;21.30;72.70;;;;;;5098075;28;20059;-71
2021/08/14 10:38:54;;;;;;;9.73;2.97;;;21.40;72.70;;;;;;5098353;28;20044;-72
2021/08/14 10:41:39;;;;;;;5.07;2.20;;;21.40;72.70;;;;;;5095833;28;20359;-74
2021/08/14 10:44:06;;;;;;;11.07;2.75;;;21.40;71.90;;;;;;5083121;28;20068;-75
2021/08/14 10:46:34;;;;;;;12.43;2.75;;;21.40;70.40;;;;;;5077945;28;20072;-77
2021/08/14 10:49:00;;;;;;;9.50;2.55;;;21.50;69.70;;;;;;5081997;28;20052;-78
2021/08/14 10:51:47;;;;;;;30.35;14.93;;;21.50;69.50;;;;;;5098271;28;20046;-77
2021/08/14 10:54:14;;;;;;;261.45;117.57;;;21.50;68.80;;;;;;5098093;28;20121;-78
2021/08/14 10:56:51;;;;;;;46.42;21.83;;;21.60;68.20;;;;;;5097720;28;20047;-77
2021/08/14 10:59:37;;;;;;;17.23;6.70;;;21.70;66.40;;;;;;5096901;28;20078;-77
2021/08/14 11:02:06;;;;;;;12.70;5.15;;;21.70;65.20;;;;;;5097615;28;20122;-77
2021/08/14 11:04:41;;;;;;;9.48;3.50;;;21.60;64.90;;;;;;5097893;28;20435;-78
2021/08/14 11:07:19;;;;;;;7.75;3.10;;;21.60;64.80;;;;;;5097609;28;20074;-77
2021/08/14 11:09:48;;;;;;;7.82;3.03;;;21.60;64.40;;;;;;5097737;28;20178;-77
2021/08/14 11:12:40;;;;;;;10.75;3.97;;;21.60;64.30;;;;;;5097742;28;20044;-78
2021/08/14 11:15:22;;;;;;;9.48;2.85;;;21.60;64.40;;;;;;5092049;28;20060;-77
2021/08/14 11:17:59;;;;;;;7.15;2.60;;;21.60;63.40;;;;;;5097528;28;20435;-77
2021/08/14 11:20:25;;;;;;;9.02;2.30;;;21.60;63.80;;;;;;5097862;28;20067;-79
2021/08/14 11:22:59;;;;;;;7.50;2.40;;;21.60;64.40;;;;;;5097472;28;20073;-77
2021/08/14 11:25:29;;;;;;;6.82;2.53;;;21.60;64.60;;;;;;5097724;28;20040;-77
2021/08/14 11:27:57;;;;;;;9.15;2.40;;;21.60;63.90;;;;;;5095491;28;20119;-77
2021/08/14 11:30:28;;;;;;;7.85;3.33;;;21.60;64.10;;;;;;5077468;28;20068;-77
2021/08/14 11:32:55;;;;;;;12.93;3.60;;;21.60;64.30;;;;;;5077653;28;20075;-79
2021/08/14 11:35:23;;;;;;;8.52;3.00;;;21.50;64.70;;;;;;5076974;28;20040;-79
2021/08/14 11:37:56;;;;;;;7.75;2.28;;;21.60;65.20;;;;;;5076933;28;20098;-78
2021/08/14 11:40:24;;;;;;;7.68;2.53;;;21.60;65.10;;;;;;5079181;28;20040;-77
2021/08/14 11:43:03;;;;;;;6.18;2.47;;;21.50;64.80;;;;;;5096945;28;20039;-78
2021/08/14 11:45:30;;;;;;;13.65;3.05;;;21.50;64.90;;;;;;5096956;28;20447;-79
2021/08/14 11:48:03;;;;;;;9.95;2.63;;;21.50;64.90;;;;;;5097083;28;20044;-74
2021/08/14 11:50:34;;;;;;;7.95;2.88;;;21.60;64.70;;;;;;5096818;28;20085;-80
2021/08/14 11:53:01;;;;;;;9.57;3.20;;;21.60;64.40;;;;;;5096363;28;20373;-78
2021/08/14 11:55:27;;;;;;;10.15;3.28;;;21.60;64.70;;;;;;5096932;28;20057;-78
2021/08/14 11:57:52;;;;;;;8.95;2.80;;;21.50;65.10;;;;;;5094710;28;20036;-77
2021/08/14 12:00:22;;;;;;;8.57;2.88;;;21.50;65.50;;;;;;5076235;28;20041;-81
2021/08/14 12:03:02;;;;;;;7.95;2.58;;;21.50;65.90;;;;;;5077542;28;20045;-78
2021/08/14 12:05:28;;;;;;;7.70;2.33;;;21.50;66.10;;;;;;5075851;28;20466;-79
2021/08/14 12:07:54;;;;;;;6.20;2.70;;;21.50;66.40;;;;;;5077557;28;20111;-77
2021/08/14 12:10:20;;;;;;;7.22;2.45;;;21.50;66.60;;;;;;5093613;28;20036;-77
2021/08/14 12:13:00;;;;;;;4.45;2.60;;;21.50;66.80;;;;;;5094894;28;20042;-78
2021/08/14 12:15:39;;;;;;;6.80;2.63;;;21.50;67.00;;;;;;5076289;28;20210;-80
2021/08/14 12:18:06;;;;;;;6.78;2.70;;;21.50;67.10;;;;;;5075914;28;20347;-79
2021/08/14 12:20:34;;;;;;;4.38;2.00;;;21.60;67.30;;;;;;5076182;28;20064;-77
2021/08/14 12:23:19;;;;;;;4.85;2.45;;;21.60;67.40;;;;;;5076038;28;20036;-79
2021/08/14 12:25:50;;;;;;;6.25;2.45;;;21.60;67.50;;;;;;5075500;28;20063;-79
2021/08/14 12:28:18;;;;;;;6.28;2.15;;;21.60;67.70;;;;;;5082094;28;20040;-78
2021/08/14 12:30:45;;;;;;;6.88;2.30;;;21.60;67.80;;;;;;5094711;28;20097;-75
2021/08/14 12:33:25;;;;;;;19.40;3.35;;;21.60;67.90;;;;;;5082643;28;20431;-75
2021/08/14 12:36:01;;;;;;;16.10;2.90;;;21.60;68.10;;;;;;5096230;28;20317;-77
2021/08/14 12:38:29;;;;;;;9.82;2.50;;;21.60;68.40;;;;;;5093304;28;20054;-75
2021/08/14 12:40:56;;;;;;;8.90;2.40;;;21.60;68.50;;;;;;5082511;28;20088;-76
2021/08/14 12:43:23;;;;;;;11.50;2.60;;;21.70;68.70;;;;;;5095837;28;20061;-74
2021/08/14 12:45:49;;;;;;;10.48;2.35;;;21.70;68.70;;;;;;5095378;28;20124;-74